createdAt,value
2022-08-05T00:04:56.423Z,19.04
2022-08-05T00:09:57.958Z,19.06
2022-08-05T00:15:00.164Z,19.04
2022-08-05T00:20:21.713Z,18.99
2022-08-05T00:25:23.232Z,19.02
2022-08-05T00:30:29.241Z,19.05
2022-08-05T00:35:33.660Z,19.06
2022-08-05T00:40:51.902Z,19.03
2022-08-05T00:45:55.378Z,19.00
2022-08-05T00:50:56.952Z,19.02
2022-08-05T00:55:58.456Z,18.98
2022-08-05T01:01:00.125Z,19.02
2022-08-05T01:06:02.645Z,19.07
2022-08-05T01:11:22.464Z,19.00
2022-08-05T01:16:52.531Z,18.97
2022-08-05T01:22:23.884Z,19.05
2022-08-05T01:27:59.774Z,19.02
2022-08-05T01:33:08.019Z,18.95
2022-08-05T01:38:14.646Z,18.91
2022-08-05T01:43:30.027Z,18.82
2022-08-05T01:48:34.862Z,18.80
2022-08-05T01:53:57.134Z,18.83
2022-08-05T01:59:02.472Z,18.77
2022-08-05T02:04:06.956Z,18.74
2022-08-05T02:09:08.498Z,18.72
2022-08-05T02:14:23.888Z,18.77
2022-08-05T02:19:28.765Z,18.74
2022-08-05T02:24:39.196Z,18.69
2022-08-05T02:29:59.599Z,18.58
2022-08-05T02:35:13.766Z,18.44
2022-08-05T02:40:17.581Z,18.29
2022-08-05T02:45:21.494Z,18.11
2022-08-05T02:50:26.903Z,18.07
2022-08-05T02:55:54.191Z,18.01
2022-08-05T03:00:55.281Z,17.91
2022-08-05T03:06:55.156Z,17.85
2022-08-05T03:11:53.659Z,17.80
2022-08-05T03:16:46.850Z,17.76
2022-08-05T03:21:50.062Z,17.70
2022-08-05T03:26:51.754Z,17.62
2022-08-05T03:31:56.912Z,17.59
2022-08-05T03:37:03.270Z,17.54
2022-08-05T03:42:04.948Z,17.48
2022-08-05T03:47:06.766Z,17.44
2022-08-05T03:52:50.622Z,17.41
2022-08-05T03:57:41.994Z,17.33
2022-08-05T04:02:52.322Z,17.29
2022-08-05T04:08:02.931Z,17.28
2022-08-05T04:13:06.466Z,17.31
2022-08-05T04:18:09.765Z,17.23
2022-08-05T04:23:16.146Z,17.20
2022-08-05T04:28:19.240Z,17.19
2022-08-05T04:34:17.871Z,17.16
2022-08-05T04:38:43.768Z,17.10
2022-08-05T04:43:52.980Z,17.02
2022-08-05T04:48:54.507Z,16.98
2022-08-05T04:53:56.005Z,16.97
2022-08-05T04:58:57.542Z,16.87
2022-08-05T05:03:59.060Z,16.77
2022-08-05T05:09:01.176Z,16.73
2022-08-05T05:14:07.060Z,16.72
2022-08-05T05:19:18.786Z,16.65
2022-08-05T05:24:21.730Z,16.70
2022-08-05T05:29:23.202Z,16.82
2022-08-05T05:34:26.635Z,16.91
2022-08-05T05:39:31.675Z,17.09
2022-08-05T05:44:37.680Z,17.23
2022-08-05T05:49:44.581Z,17.40
2022-08-05T05:54:54.165Z,17.59
2022-08-05T05:59:55.803Z,17.80
2022-08-05T06:04:58.588Z,18.00
2022-08-05T06:10:08.320Z,18.20
2022-08-05T06:15:23.529Z,18.38
2022-08-05T06:20:25.785Z,18.53
2022-08-05T06:26:13.050Z,18.70
2022-08-05T06:30:51.670Z,18.90
2022-08-05T06:36:03.626Z,19.04
2022-08-05T06:41:09.750Z,19.20
2022-08-05T06:46:13.309Z,19.54
2022-08-05T06:51:23.891Z,20.59
2022-08-05T06:56:34.938Z,20.62
2022-08-05T07:01:36.904Z,20.57
2022-08-05T07:06:38.482Z,20.53
2022-08-05T07:11:40.141Z,20.42
2022-08-05T07:17:56.912Z,20.31
2022-08-05T07:22:12.128Z,20.29
2022-08-05T07:27:17.338Z,20.41
2022-08-05T07:32:18.842Z,20.57
2022-08-05T07:37:29.241Z,20.71
2022-08-05T07:42:37.659Z,20.98
2022-08-05T07:47:42.472Z,21.15
2022-08-05T07:52:45.191Z,21.31
2022-08-05T07:57:56.258Z,21.36
2022-08-05T08:03:15.363Z,21.30
2022-08-05T08:08:19.922Z,21.28
2022-08-05T08:13:29.239Z,21.28
2022-08-05T08:18:31.042Z,21.18
2022-08-05T08:24:02.399Z,21.07
2022-08-05T08:28:59.821Z,20.86
2022-08-05T08:34:18.709Z,20.91
2022-08-05T08:39:31.470Z,21.08
2022-08-05T08:45:17.857Z,21.31
2022-08-05T08:50:30.987Z,21.56
2022-08-05T08:56:02.137Z,21.74
2022-08-05T09:00:48.749Z,21.76
2022-08-05T09:06:08.447Z,21.61
2022-08-05T09:11:13.950Z,21.55
2022-08-05T09:16:16.864Z,21.47
2022-08-05T09:21:20.819Z,21.57
2022-08-05T09:26:22.824Z,21.73
2022-08-05T09:32:39.056Z,21.92
2022-08-05T09:36:55.844Z,21.99
2022-08-05T09:42:04.787Z,22.09
2022-08-05T09:47:15.426Z,22.07
2022-08-05T09:52:23.643Z,21.98
2022-08-05T09:57:45.371Z,21.98
2022-08-05T10:02:51.395Z,21.80
2022-08-05T10:08:35.080Z,21.75
2022-08-05T10:13:47.813Z,21.63
2022-08-05T10:18:50.527Z,22.38
2022-08-05T10:24:00.033Z,22.41
2022-08-05T10:29:02.541Z,22.15
2022-08-05T10:34:06.947Z,22.57
2022-08-05T10:39:25.255Z,22.97
2022-08-05T10:44:45.104Z,22.26
2022-08-05T10:50:31.961Z,21.71
2022-08-05T10:56:14.917Z,21.38
2022-08-05T11:01:54.578Z,21.25
2022-08-05T11:07:07.333Z,21.02
2022-08-05T11:12:24.378Z,20.87
2022-08-05T11:17:58.827Z,20.91
2022-08-05T11:22:53.962Z,20.97
2022-08-05T11:28:00.830Z,21.02
2022-08-05T11:33:21.430Z,21.15
2022-08-05T11:38:45.721Z,21.11
2022-08-05T11:44:01.106Z,21.15
2022-08-05T11:49:15.515Z,21.14
2022-08-05T11:54:33.308Z,21.24
2022-08-05T11:59:49.471Z,21.27
2022-08-05T12:04:59.195Z,21.23
2022-08-05T12:10:09.562Z,21.28
2022-08-05T12:15:33.934Z,21.18
2022-08-05T12:20:40.639Z,21.22
2022-08-05T12:25:56.401Z,21.17
2022-08-05T12:31:02.405Z,21.16
2022-08-05T12:36:07.231Z,21.24
2022-08-05T12:41:12.950Z,21.43
2022-08-05T12:46:26.702Z,21.26
2022-08-05T12:52:14.332Z,21.16
2022-08-05T12:56:58.732Z,21.30
2022-08-05T13:02:08.175Z,21.59
2022-08-05T13:07:16.014Z,21.53
2022-08-05T13:12:20.510Z,21.33
2022-08-05T13:17:42.003Z,21.34
2022-08-05T13:22:51.192Z,21.28
2022-08-05T13:27:54.638Z,21.45
2022-08-05T13:32:56.621Z,21.57
2022-08-05T13:37:58.130Z,21.46
2022-08-05T13:43:12.119Z,21.45
2022-08-05T13:48:57.497Z,21.23
2022-08-05T13:53:35.503Z,21.24
2022-08-05T13:58:53.348Z,21.24
2022-08-05T14:04:13.966Z,21.24
2022-08-05T14:09:16.101Z,21.20
2022-08-05T14:14:23.089Z,21.36
2022-08-05T14:19:27.012Z,21.25
2022-08-05T14:24:30.543Z,21.11
2022-08-05T14:29:32.974Z,21.03
2022-08-05T14:34:35.853Z,21.14
2022-08-05T14:39:49.401Z,20.92
2022-08-05T14:44:51.920Z,20.85
2022-08-05T14:49:59.410Z,20.70
2022-08-05T14:55:03.818Z,20.63
2022-08-05T15:00:06.184Z,20.65
2022-08-05T15:05:13.673Z,20.50
2022-08-05T15:10:15.129Z,20.35
2022-08-05T15:15:16.921Z,20.23
2022-08-05T15:20:38.839Z,20.34
2022-08-05T15:25:52.840Z,20.36
2022-08-05T15:30:57.313Z,20.37
2022-08-05T15:35:59.276Z,20.42
2022-08-05T15:41:21.903Z,20.43
2022-08-05T15:46:25.243Z,20.34
2022-08-05T15:52:10.344Z,20.06
2022-08-05T15:56:49.614Z,19.96
2022-08-05T16:01:53.318Z,19.79
2022-08-05T16:06:58.005Z,19.84
2022-08-05T16:12:00.274Z,19.89
2022-08-05T16:17:04.033Z,19.93
2022-08-05T16:22:07.722Z,19.83
2022-08-05T16:27:16.069Z,19.71
2022-08-05T16:32:21.607Z,19.55
2022-08-05T16:38:03.147Z,19.52
2022-08-05T16:42:52.799Z,19.49
2022-08-05T16:47:58.487Z,19.35
2022-08-05T16:53:12.709Z,19.35
2022-08-05T16:58:25.020Z,19.31
2022-08-05T17:03:26.861Z,19.19
2022-08-05T17:08:36.777Z,19.02
2022-08-05T17:13:51.266Z,18.91
2022-08-05T17:19:02.302Z,18.85
2022-08-05T17:24:30.361Z,18.79
2022-08-05T17:29:33.467Z,18.84
2022-08-05T17:34:41.993Z,18.85
2022-08-05T17:39:44.218Z,18.87
2022-08-05T17:44:50.122Z,18.80
2022-08-05T17:50:03.586Z,18.72
2022-08-05T17:55:07.864Z,18.69
2022-08-05T18:00:10.248Z,18.61
2022-08-05T18:05:16.783Z,18.42
2022-08-05T18:10:21.065Z,18.36
2022-08-05T18:15:24.285Z,18.22
2022-08-05T18:20:32.080Z,18.19
2022-08-05T18:25:33.981Z,18.08
2022-08-05T18:30:39.055Z,17.93
2022-08-05T18:36:01.399Z,17.84
2022-08-05T18:41:58.283Z,17.75
2022-08-05T18:46:29.187Z,17.66
2022-08-05T18:52:04.322Z,17.67
2022-08-05T18:57:15.251Z,17.78
2022-08-05T19:02:28.149Z,17.77
2022-08-05T19:07:45.591Z,17.68
2022-08-05T19:12:48.802Z,17.52
2022-08-05T19:17:59.896Z,17.41
2022-08-05T19:24:04.170Z,17.31
2022-08-05T19:28:34.642Z,17.16
2022-08-05T19:33:38.062Z,17.07
2022-08-05T19:38:43.653Z,17.02
2022-08-05T19:44:06.368Z,16.94
2022-08-05T19:49:07.720Z,16.82
2022-08-05T19:54:21.754Z,16.70
2022-08-05T20:00:00.994Z,16.61
2022-08-05T20:04:55.405Z,16.47
2022-08-05T20:10:00.157Z,16.35
2022-08-05T20:15:05.790Z,16.27
2022-08-05T20:20:14.486Z,16.05
2022-08-05T20:25:15.996Z,16.02
2022-08-05T20:30:18.272Z,15.93
2022-08-05T20:35:21.463Z,15.85
2022-08-05T20:40:25.743Z,15.80
2022-08-05T20:45:55.854Z,15.64
2022-08-05T20:50:50.085Z,15.55
2022-08-05T20:55:56.171Z,15.41
2022-08-05T21:01:09.699Z,15.41
2022-08-05T21:06:27.830Z,15.32
2022-08-05T21:12:10.756Z,15.27
2022-08-05T21:16:51.966Z,15.16
2022-08-05T21:21:53.993Z,15.08
2022-08-05T21:26:58.991Z,15.10
2022-08-05T21:32:03.974Z,14.98
2022-08-05T21:37:08.033Z,14.96
2022-08-05T21:42:30.691Z,14.98
2022-08-05T21:47:55.108Z,15.03
2022-08-05T21:52:53.737Z,14.88
2022-08-05T21:58:00.588Z,14.78
2022-08-05T22:03:05.109Z,14.68
2022-08-05T22:08:06.841Z,14.51
2022-08-05T22:14:19.827Z,14.56
2022-08-05T22:18:49.272Z,14.55
2022-08-05T22:24:13.220Z,14.38
2022-08-05T22:29:33.085Z,14.30
2022-08-05T22:34:34.787Z,14.29
2022-08-05T22:39:37.765Z,14.22
2022-08-05T22:44:56.337Z,14.17
2022-08-05T22:50:21.633Z,14.07
2022-08-05T22:55:26.031Z,13.95
2022-08-05T23:00:28.024Z,13.85
2022-08-05T23:05:29.526Z,13.78
2022-08-05T23:10:37.417Z,13.80
2022-08-05T23:15:40.495Z,13.76
2022-08-05T23:20:43.244Z,13.66
2022-08-05T23:25:51.954Z,13.58
2022-08-05T23:30:55.987Z,13.59
2022-08-05T23:36:17.581Z,13.56
2022-08-05T23:41:19.397Z,13.49
2022-08-05T23:46:22.136Z,13.39
2022-08-05T23:51:23.782Z,13.38
2022-08-05T23:56:27.360Z,13.36
